Kimble County Airport
KJCT : now visible

Airfield :











YOU CAN JOIN US ON...

 
LOGIN :

Register | Disclaimer

   EN    FR    IT 

 









Legend :    VFR   Marginal VFR   IFR   Intensive IFR   Very Intensive IFR
Visi :
Ceiling :
>= 8 km
>= 3000ft
5 to 8 km
1000 to 3000 ft
1500m to 5 km
500 to 1000 ft
800 to 1500m
200 to 500 ft
< 800m
< 200 ft
Symbols :   Thunderstorms  Fog  Heavy snow  Heavy precipitations  Wind > 20 kt






- Airport Elevation : 1749 ft


KJCT - Kimble County

CURRENT METAR :
  • 080751Z AUTO 33011KT 5SM BR OVC009 06/05 A3007 RMK AO2 LTG DSNT S RAE04 SLP166 P0000 T00610050

EXPIRED METARs :
  • 080651Z AUTO 34009KT 9SM -RA OVC008 07/06 A3010 RMK AO2 RAB51 SLP174 P0000 T00670056
  • 080551Z AUTO 36006KT 9SM OVC008 07/06 A3010 RMK AO2 SLP174 T00720061 10094 20072 401890072 53001
  • 080451Z AUTO 36008KT 8SM OVC008 08/06 A3010 RMK AO2 SLP170 T00780061

TAF KJCT
Valid from the 08 at 06:00 until the 09 at 06:00 UTC


080520Z 0806/0906 36011KT P6SM VCSH OVC008
FM081000 34010KT 6SM -SHRA BR OVC007
FM081200 33009KT P6SM VCSH OVC009
FM081700 31012KT P6SM BKN035
KZHU FIR / North America



MET'MAP, your aeronautical weather chart ! - Copyright ORBIFLY December 2007 - Disclaimer

ORBIFLY MET'MAP TEAM :

Programming & Development : Alexandra Zaïnal
Original concept : Baudouin d'Aumeries
Technical & hardware support : Manuel Goepfert
Assistance : Marc-Olivier Méhu




SOURCES & CREDITS :

   NOAA       Earth
Advisory